sensor_id;sensor_type;location;lat;lon;timestamp;P1;P2;P0
74436;PMS7003;62868;52.360;30.424;2023-07-16T00:00:37;0.7;0.7;0.7
74436;PMS7003;62868;52.360;30.424;2023-07-16T00:05:03;1.3;1;1
74436;PMS7003;62868;52.360;30.424;2023-07-16T00:10:23;1.3;1;1
74436;PMS7003;62868;52.360;30.424;2023-07-16T00:15:45;1;1;1
74436;PMS7003;62868;52.360;30.424;2023-07-16T00:20:03;1;1;1
74436;PMS7003;62868;52.360;30.424;2023-07-16T00:25:03;1.3;1;0.8
74436;PMS7003;62868;52.360;30.424;2023-07-16T00:30:31;0.7;0.7;0.3
74436;PMS7003;62868;52.360;30.424;2023-07-16T00:35:37;0.7;0.3;0.3
74436;PMS7003;62868;52.360;30.424;2023-07-16T00:40:45;1.3;1.3;1
74436;PMS7003;62868;52.360;30.424;2023-07-16T00:45:17;0.8;0.8;0.8
74436;PMS7003;62868;52.360;30.424;2023-07-16T00:50:11;1.3;1.3;0.7
74436;PMS7003;62868;52.360;30.424;2023-07-16T00:55:06;0.7;0.7;0.7
74436;PMS7003;62868;52.360;30.424;2023-07-16T01:00:39;1.3;1.3;1
74436;PMS7003;62868;52.360;30.424;2023-07-16T01:05:47;1.3;0.8;0.5
74436;PMS7003;62868;52.360;30.424;2023-07-16T01:10:45;0.3;0.3;0.3
74436;PMS7003;62868;52.360;30.424;2023-07-16T01:15:45;1.3;1;1
74436;PMS7003;62868;52.360;30.424;2023-07-16T01:20:31;0.3;0.3;0.3
74436;PMS7003;62868;52.360;30.424;2023-07-16T01:25:58;0.5;0.3;0.3
74436;PMS7003;62868;52.360;30.424;2023-07-16T01:30:05;1;1;1
74436;PMS7003;62868;52.360;30.424;2023-07-16T01:35:45;1;1;1
74436;PMS7003;62868;52.360;30.424;2023-07-16T01:40:43;0.7;0.7;0.7
74436;PMS7003;62868;52.360;30.424;2023-07-16T01:45:45;1;0.8;0.3
74436;PMS7003;62868;52.360;30.424;2023-07-16T01:50:45;0.3;0.3;0.3
74436;PMS7003;62868;52.360;30.424;2023-07-16T01:55:31;1;0.3;0
74436;PMS7003;62868;52.360;30.424;2023-07-16T02:00:39;1;1;1
74436;PMS7003;62868;52.360;30.424;2023-07-16T02:05:11;0.8;0.3;0.3
74436;PMS7003;62868;52.360;30.424;2023-07-16T02:10:25;1;0.7;0.7
74436;PMS7003;62868;52.360;30.424;2023-07-16T02:15:45;1.3;0.7;0
74436;PMS7003;62868;52.360;30.424;2023-07-16T02:20:25;0.8;0.5;0.3
74436;PMS7003;62868;52.360;30.424;2023-07-16T02:25:23;0.7;0.7;0
74436;PMS7003;62868;52.360;30.424;2023-07-16T02:30:03;1.7;1;0.7
74436;PMS7003;62868;52.360;30.424;2023-07-16T02:35:03;0.7;0.7;0.3
74436;PMS7003;62868;52.360;30.424;2023-07-16T02:40:09;0.8;0.5;0.5
74436;PMS7003;62868;52.360;30.424;2023-07-16T02:45:01;0.7;0.7;0.7
74436;PMS7003;62868;52.360;30.424;2023-07-16T02:50:17;1;1;1
74436;PMS7003;62868;52.360;30.424;2023-07-16T02:55:44;0.3;0.3;0.3
74436;PMS7003;62868;52.360;30.424;2023-07-16T03:00:21;0;0;0
74436;PMS7003;62868;52.360;30.424;2023-07-16T03:05:05;0;0;0
74436;PMS7003;62868;52.360;30.424;2023-07-16T03:10:13;0;0;0
74436;PMS7003;62868;52.360;30.424;2023-07-16T03:15:01;0;0;0
74436;PMS7003;62868;52.360;30.424;2023-07-16T03:20:15;0;0;0
74436;PMS7003;62868;52.360;30.424;2023-07-16T03:25:37;0;0;0
74436;PMS7003;62868;52.360;30.424;2023-07-16T03:30:45;0.3;0;0
74436;PMS7003;62868;52.360;30.424;2023-07-16T03:35:03;0;0;0
74436;PMS7003;62868;52.360;30.424;2023-07-16T03:40:23;0;0;0
74436;PMS7003;62868;52.360;30.424;2023-07-16T03:45:05;0;0;0
74436;PMS7003;62868;52.360;30.424;2023-07-16T03:50:11;0;0;0
74436;PMS7003;62868;52.360;30.424;2023-07-16T03:55:03;0;0;0
74436;PMS7003;62868;52.360;30.424;2023-07-16T04:00:23;0;0;0
74436;PMS7003;62868;52.360;30.424;2023-07-16T04:05:33;0;0;0
74436;PMS7003;62868;52.360;30.424;2023-07-16T04:10:31;0;0;0
74436;PMS7003;62868;52.360;30.424;2023-07-16T04:15:06;0;0;0
74436;PMS7003;62868;52.360;30.424;2023-07-16T04:20:47;0;0;0
74436;PMS7003;62868;52.360;30.424;2023-07-16T04:25:50;0;0;0
74436;PMS7003;62868;52.360;30.424;2023-07-16T04:30:19;0;0;0
74436;PMS7003;62868;52.360;30.424;2023-07-16T04:35:23;0;0;0
74436;PMS7003;62868;52.360;30.424;2023-07-16T04:40:47;0.3;0;0
74436;PMS7003;62868;52.360;30.424;2023-07-16T04:45:04;0;0;0
74436;PMS7003;62868;52.360;30.424;2023-07-16T04:50:11;0;0;0
74436;PMS7003;62868;52.360;30.424;2023-07-16T04:55:34;0;0;0
74436;PMS7003;62868;52.360;30.424;2023-07-16T05:00:03;0;0;0
74436;PMS7003;62868;52.360;30.424;2023-07-16T05:05:47;0;0;0
74436;PMS7003;62868;52.360;30.424;2023-07-16T05:10:21;0;0;0
74436;PMS7003;62868;52.360;30.424;2023-07-16T05:15:03;0;0;0
74436;PMS7003;62868;52.360;30.424;2023-07-16T05:20:03;0;0;0
74436;PMS7003;62868;52.360;30.424;2023-07-16T05:25:27;0;0;0
74436;PMS7003;62868;52.360;30.424;2023-07-16T05:30:07;0;0;0
74436;PMS7003;62868;52.360;30.424;2023-07-16T05:35:37;0;0;0
74436;PMS7003;62868;52.360;30.424;2023-07-16T05:40:47;0;0;0
74436;PMS7003;62868;52.360;30.424;2023-07-16T05:45:31;0.3;0.3;0.3
74436;PMS7003;62868;52.360;30.424;2023-07-16T05:50:04;0.3;0;0
74436;PMS7003;62868;52.360;30.424;2023-07-16T05:55:17;0.8;0.5;0.5
74436;PMS7003;62868;52.360;30.424;2023-07-16T06:00:47;2.3;1.7;1
74436;PMS7003;62868;52.360;30.424;2023-07-16T06:05:47;0.3;0.3;0.3
74436;PMS7003;62868;52.360;30.424;2023-07-16T06:10:47;0.3;0.3;0.3
74436;PMS7003;62868;52.360;30.424;2023-07-16T06:15:45;0;0;0
74436;PMS7003;62868;52.360;30.424;2023-07-16T06:20:25;0;0;0
74436;PMS7003;62868;52.360;30.424;2023-07-16T06:25:03;0;0;0
74436;PMS7003;62868;52.360;30.424;2023-07-16T06:30:09;0;0;0
74436;PMS7003;62868;52.360;30.424;2023-07-16T06:35:27;0;0;0
74436;PMS7003;62868;52.360;30.424;2023-07-16T06:40:47;0;0;0
74436;PMS7003;62868;52.360;30.424;2023-07-16T06:45:09;0.3;0;0
74436;PMS7003;62868;52.360;30.424;2023-07-16T06:50:23;0.5;0;0
74436;PMS7003;62868;52.360;30.424;2023-07-16T06:55:03;0.3;0.3;0.3
74436;PMS7003;62868;52.360;30.424;2023-07-16T07:00:05;1;1;0.7
74436;PMS7003;62868;52.360;30.424;2023-07-16T07:05:11;6.3;6.3;5.3
74436;PMS7003;62868;52.360;30.424;2023-07-16T07:10:17;4;3.5;2.8
74436;PMS7003;62868;52.360;30.424;2023-07-16T07:15:27;1;1;0.7
74436;PMS7003;62868;52.360;30.424;2023-07-16T07:20:47;0;0;0
74436;PMS7003;62868;52.360;30.424;2023-07-16T07:25:03;0;0;0
74436;PMS7003;62868;52.360;30.424;2023-07-16T07:30:03;0;0;0
74436;PMS7003;62868;52.360;30.424;2023-07-16T07:35:27;0;0;0
74436;PMS7003;62868;52.360;30.424;2023-07-16T07:40:11;0;0;0
74436;PMS7003;62868;52.360;30.424;2023-07-16T07:45:25;0;0;0
74436;PMS7003;62868;52.360;30.424;2023-07-16T07:50:39;0;0;0
74436;PMS7003;62868;52.360;30.424;2023-07-16T07:55:47;0;0;0
74436;PMS7003;62868;52.360;30.424;2023-07-16T08:00:03;0;0;0
74436;PMS7003;62868;52.360;30.424;2023-07-16T08:05:39;0;0;0
74436;PMS7003;62868;52.360;30.424;2023-07-16T08:10:47;0;0;0
74436;PMS7003;62868;52.360;30.424;2023-07-16T08:15:17;0;0;0
74436;PMS7003;62868;52.360;30.424;2023-07-16T08:20:15;0;0;0
74436;PMS7003;62868;52.360;30.424;2023-07-16T08:25:03;0;0;0
74436;PMS7003;62868;52.360;30.424;2023-07-16T08:30:39;0;0;0
74436;PMS7003;62868;52.360;30.424;2023-07-16T08:35:03;0;0;0
74436;PMS7003;62868;52.360;30.424;2023-07-16T08:40:03;0;0;0
74436;PMS7003;62868;52.360;30.424;2023-07-16T08:45:48;0;0;0
74436;PMS7003;62868;52.360;30.424;2023-07-16T08:50:39;0.7;0;0
74436;PMS7003;62868;52.360;30.424;2023-07-16T08:55:03;0;0;0
74436;PMS7003;62868;52.360;30.424;2023-07-16T09:00:23;0;0;0
74436;PMS7003;62868;52.360;30.424;2023-07-16T09:05:47;0;0;0
74436;PMS7003;62868;52.360;30.424;2023-07-16T09:10:13;0;0;0
74436;PMS7003;62868;52.360;30.424;2023-07-16T09:15:31;0;0;0
74436;PMS7003;62868;52.360;30.424;2023-07-16T09:20:31;0;0;0
74436;PMS7003;62868;52.360;30.424;2023-07-16T09:25:39;0;0;0
74436;PMS7003;62868;52.360;30.424;2023-07-16T09:30:47;0;0;0
74436;PMS7003;62868;52.360;30.424;2023-07-16T09:35:23;0;0;0
74436;PMS7003;62868;52.360;30.424;2023-07-16T09:40:04;0;0;0
74436;PMS7003;62868;52.360;30.424;2023-07-16T09:45:18;0;0;0
74436;PMS7003;62868;52.360;30.424;2023-07-16T09:50:48;0;0;0
74436;PMS7003;62868;52.360;30.424;2023-07-16T09:55:32;0;0;0
74436;PMS7003;62868;52.360;30.424;2023-07-16T10:00:47;0;0;0
74436;PMS7003;62868;52.360;30.424;2023-07-16T10:05:47;0;0;0
74436;PMS7003;62868;52.360;30.424;2023-07-16T10:10:26;0;0;0
74436;PMS7003;62868;52.360;30.424;2023-07-16T10:15:38;0;0;0
74436;PMS7003;62868;52.360;30.424;2023-07-16T10:20:17;0;0;0
74436;PMS7003;62868;52.360;30.424;2023-07-16T10:25:57;0;0;0
74436;PMS7003;62868;52.360;30.424;2023-07-16T10:30:16;0;0;0
74436;PMS7003;62868;52.360;30.424;2023-07-16T10:35:04;0;0;0
74436;PMS7003;62868;52.360;30.424;2023-07-16T10:40:45;0;0;0
74436;PMS7003;62868;52.360;30.424;2023-07-16T10:45:17;0;0;0
74436;PMS7003;62868;52.360;30.424;2023-07-16T10:50:06;0;0;0
74436;PMS7003;62868;52.360;30.424;2023-07-16T10:55:09;0;0;0
74436;PMS7003;62868;52.360;30.424;2023-07-16T11:00:25;0;0;0
74436;PMS7003;62868;52.360;30.424;2023-07-16T11:05:19;0;0;0
74436;PMS7003;62868;52.360;30.424;2023-07-16T11:10:31;0;0;0
74436;PMS7003;62868;52.360;30.424;2023-07-16T11:15:06;0;0;0
74436;PMS7003;62868;52.360;30.424;2023-07-16T11:20:06;0;0;0
74436;PMS7003;62868;52.360;30.424;2023-07-16T11:25:10;0;0;0
74436;PMS7003;62868;52.360;30.424;2023-07-16T11:30:11;0;0;0
74436;PMS7003;62868;52.360;30.424;2023-07-16T11:35:20;0;0;0
74436;PMS7003;62868;52.360;30.424;2023-07-16T11:40:47;0;0;0
74436;PMS7003;62868;52.360;30.424;2023-07-16T11:45:47;0;0;0
74436;PMS7003;62868;52.360;30.424;2023-07-16T11:50:04;0;0;0
74436;PMS7003;62868;52.360;30.424;2023-07-16T11:55:04;0;0;0
74436;PMS7003;62868;52.360;30.424;2023-07-16T12:00:27;0;0;0
74436;PMS7003;62868;52.360;30.424;2023-07-16T12:05:25;0;0;0
74436;PMS7003;62868;52.360;30.424;2023-07-16T12:10:17;0;0;0
74436;PMS7003;62868;52.360;30.424;2023-07-16T12:15:25;0.7;0.3;0
74436;PMS7003;62868;52.360;30.424;2023-07-16T12:20:47;0;0;0
74436;PMS7003;62868;52.360;30.424;2023-07-16T12:25:06;0;0;0
74436;PMS7003;62868;52.360;30.424;2023-07-16T12:30:47;0;0;0
74436;PMS7003;62868;52.360;30.424;2023-07-16T12:35:41;0;0;0
74436;PMS7003;62868;52.360;30.424;2023-07-16T12:40:04;0;0;0
74436;PMS7003;62868;52.360;30.424;2023-07-16T12:45:04;0;0;0
74436;PMS7003;62868;52.360;30.424;2023-07-16T12:50:21;0;0;0
74436;PMS7003;62868;52.360;30.424;2023-07-16T12:55:21;0;0;0
74436;PMS7003;62868;52.360;30.424;2023-07-16T13:00:27;0;0;0
74436;PMS7003;62868;52.360;30.424;2023-07-16T13:05:21;0;0;0
74436;PMS7003;62868;52.360;30.424;2023-07-16T13:10:47;0;0;0
74436;PMS7003;62868;52.360;30.424;2023-07-16T13:15:39;0;0;0
74436;PMS7003;62868;52.360;30.424;2023-07-16T13:20:20;0;0;0
74436;PMS7003;62868;52.360;30.424;2023-07-16T13:25:23;0;0;0
74436;PMS7003;62868;52.360;30.424;2023-07-16T13:30:47;0;0;0
74436;PMS7003;62868;52.360;30.424;2023-07-16T13:35:17;0;0;0
74436;PMS7003;62868;52.360;30.424;2023-07-16T13:40:04;0;0;0
74436;PMS7003;62868;52.360;30.424;2023-07-16T13:45:08;0;0;0
74436;PMS7003;62868;52.360;30.424;2023-07-16T13:50:21;0;0;0
74436;PMS7003;62868;52.360;30.424;2023-07-16T13:55:47;0;0;0
74436;PMS7003;62868;52.360;30.424;2023-07-16T14:00:22;0;0;0
74436;PMS7003;62868;52.360;30.424;2023-07-16T14:05:21;0;0;0
74436;PMS7003;62868;52.360;30.424;2023-07-16T14:10:19;0;0;0
74436;PMS7003;62868;52.360;30.424;2023-07-16T14:15:47;0;0;0
74436;PMS7003;62868;52.360;30.424;2023-07-16T14:20:31;0;0;0
74436;PMS7003;62868;52.360;30.424;2023-07-16T14:25:37;0;0;0
74436;PMS7003;62868;52.360;30.424;2023-07-16T14:30:47;0;0;0
74436;PMS7003;62868;52.360;30.424;2023-07-16T14:35:32;0;0;0
74436;PMS7003;62868;52.360;30.424;2023-07-16T14:40:06;0.3;0;0
74436;PMS7003;62868;52.360;30.424;2023-07-16T14:45:25;0;0;0
74436;PMS7003;62868;52.360;30.424;2023-07-16T14:50:48;0;0;0
74436;PMS7003;62868;52.360;30.424;2023-07-16T14:55:27;0;0;0
74436;PMS7003;62868;52.360;30.424;2023-07-16T15:00:39;0;0;0
74436;PMS7003;62868;52.360;30.424;2023-07-16T15:05:47;0.3;0;0
74436;PMS7003;62868;52.360;30.424;2023-07-16T15:10:06;0;0;0
74436;PMS7003;62868;52.360;30.424;2023-07-16T15:15:04;0;0;0
74436;PMS7003;62868;52.360;30.424;2023-07-16T15:20:12;0;0;0
74436;PMS7003;62868;52.360;30.424;2023-07-16T15:25:27;0.3;0;0
74436;PMS7003;62868;52.360;30.424;2023-07-16T15:30:27;0;0;0
74436;PMS7003;62868;52.360;30.424;2023-07-16T15:35:31;0;0;0
74436;PMS7003;62868;52.360;30.424;2023-07-16T15:40:23;0;0;0
74436;PMS7003;62868;52.360;30.424;2023-07-16T15:45:04;0;0;0
74436;PMS7003;62868;52.360;30.424;2023-07-16T15:50:04;0;0;0
74436;PMS7003;62868;52.360;30.424;2023-07-16T15:55:12;0;0;0
74436;PMS7003;62868;52.360;30.424;2023-07-16T16:00:18;0;0;0
74436;PMS7003;62868;52.360;30.424;2023-07-16T16:05:29;0.3;0.3;0.3
74436;PMS7003;62868;52.360;30.424;2023-07-16T16:10:48;0.7;0;0
74436;PMS7003;62868;52.360;30.424;2023-07-16T16:15:11;0.3;0;0
74436;PMS7003;62868;52.360;30.424;2023-07-16T16:20:04;0;0;0
74436;PMS7003;62868;52.360;30.424;2023-07-16T16:25:22;0;0;0
74436;PMS7003;62868;52.360;30.424;2023-07-16T16:30:12;0;0;0
74436;PMS7003;62868;52.360;30.424;2023-07-16T16:35:20;0;0;0
74436;PMS7003;62868;52.360;30.424;2023-07-16T16:40:40;0;0;0
74436;PMS7003;62868;52.360;30.424;2023-07-16T16:45:48;0;0;0
74436;PMS7003;62868;52.360;30.424;2023-07-16T16:50:04;0;0;0
74436;PMS7003;62868;52.360;30.424;2023-07-16T16:55:24;0;0;0
74436;PMS7003;62868;52.360;30.424;2023-07-16T17:00:48;0;0;0
74436;PMS7003;62868;52.360;30.424;2023-07-16T17:05:04;0;0;0
74436;PMS7003;62868;52.360;30.424;2023-07-16T17:10:20;0;0;0
74436;PMS7003;62868;52.360;30.424;2023-07-16T17:15:32;0;0;0
74436;PMS7003;62868;52.360;30.424;2023-07-16T17:20:38;0;0;0
74436;PMS7003;62868;52.360;30.424;2023-07-16T17:25:10;0;0;0
74436;PMS7003;62868;52.360;30.424;2023-07-16T17:30:04;0;0;0
74436;PMS7003;62868;52.360;30.424;2023-07-16T17:35:48;0;0;0
74436;PMS7003;62868;52.360;30.424;2023-07-16T17:40:38;0;0;0
74436;PMS7003;62868;52.360;30.424;2023-07-16T17:45:20;0;0;0
74436;PMS7003;62868;52.360;30.424;2023-07-16T17:50:32;0;0;0
74436;PMS7003;62868;52.360;30.424;2023-07-16T17:55:48;0;0;0
74436;PMS7003;62868;52.360;30.424;2023-07-16T18:00:06;0;0;0
74436;PMS7003;62868;52.360;30.424;2023-07-16T18:05:04;0;0;0
74436;PMS7003;62868;52.360;30.424;2023-07-16T18:10:30;3.3;3;2.7
74436;PMS7003;62868;52.360;30.424;2023-07-16T18:15:06;10.3;9;7
74436;PMS7003;62868;52.360;30.424;2023-07-16T18:20:50;9.5;8.3;6.3
74436;PMS7003;62868;52.360;30.424;2023-07-16T18:25:10;8;6.7;5.3
74436;PMS7003;62868;52.360;30.424;2023-07-16T18:30:54;5.7;5.7;4
74436;PMS7003;62868;52.360;30.424;2023-07-16T18:35:04;5.7;5;4
74436;PMS7003;62868;52.360;30.424;2023-07-16T18:40:52;3.5;2.8;2.5
74436;PMS7003;62868;52.360;30.424;2023-07-16T18:45:52;3.3;2.7;2
74436;PMS7003;62868;52.360;30.424;2023-07-16T18:50:52;3;2.3;2
74436;PMS7003;62868;52.360;30.424;2023-07-16T18:55:52;2.8;2.5;2
74436;PMS7003;62868;52.360;30.424;2023-07-16T19:00:28;2.3;2.3;2
74436;PMS7003;62868;52.360;30.424;2023-07-16T19:05:04;2.3;2.3;1.7
74436;PMS7003;62868;52.360;30.424;2023-07-16T19:10:30;4;3.3;2
74436;PMS7003;62868;52.360;30.424;2023-07-16T19:15:52;3.8;3;2.5
74436;PMS7003;62868;52.360;30.424;2023-07-16T19:20:32;3.7;2.7;2
74436;PMS7003;62868;52.360;30.424;2023-07-16T19:25:12;1.7;1.3;0.7
74436;PMS7003;62868;52.360;30.424;2023-07-16T19:30:52;1;0.3;0.3
74436;PMS7003;62868;52.360;30.424;2023-07-16T19:35:44;2.5;2.3;1
74436;PMS7003;62868;52.360;30.424;2023-07-16T19:40:40;2;2;1.3
74436;PMS7003;62868;52.360;30.424;2023-07-16T19:45:10;0.7;0.7;0.3
74436;PMS7003;62868;52.360;30.424;2023-07-16T19:50:32;1;1;0.7
74436;PMS7003;62868;52.360;30.424;2023-07-16T19:55:32;1.5;1;0.5
74436;PMS7003;62868;52.360;30.424;2023-07-16T20:00:52;1;0.7;0
74436;PMS7003;62868;52.360;30.424;2023-07-16T20:05:28;1;0.7;0.3
74436;PMS7003;62868;52.360;30.424;2023-07-16T20:10:04;0.7;0.7;0.3
74436;PMS7003;62868;52.360;30.424;2023-07-16T20:15:52;1.3;1.3;0.3
74436;PMS7003;62868;52.360;30.424;2023-07-16T20:20:16;1.7;1.7;1
74436;PMS7003;62868;52.360;30.424;2023-07-16T20:25:24;2.3;2;1
74436;PMS7003;62868;52.360;30.424;2023-07-16T20:30:12;0.3;0.3;0
74436;PMS7003;62868;52.360;30.424;2023-07-16T20:35:52;0.8;0.3;0.3
74436;PMS7003;62868;52.360;30.424;2023-07-16T20:40:22;0.3;0.3;0
74436;PMS7003;62868;52.360;30.424;2023-07-16T20:45:12;0;0;0
74436;PMS7003;62868;52.360;30.424;2023-07-16T20:50:32;0;0;0
74436;PMS7003;62868;52.360;30.424;2023-07-16T20:55:16;0;0;0
74436;PMS7003;62868;52.360;30.424;2023-07-16T21:00:24;0.3;0;0
74436;PMS7003;62868;52.360;30.424;2023-07-16T21:05:26;0.3;0.3;0.3
74436;PMS7003;62868;52.360;30.424;2023-07-16T21:10:52;0.3;0;0
74436;PMS7003;62868;52.360;30.424;2023-07-16T21:15:04;0;0;0
74436;PMS7003;62868;52.360;30.424;2023-07-16T21:20:04;0;0;0
74436;PMS7003;62868;52.360;30.424;2023-07-16T21:25:28;0;0;0
74436;PMS7003;62868;52.360;30.424;2023-07-16T21:30:10;0;0;0
74436;PMS7003;62868;52.360;30.424;2023-07-16T21:35:04;0;0;0
74436;PMS7003;62868;52.360;30.424;2023-07-16T21:40:20;0.3;0.3;0
74436;PMS7003;62868;52.360;30.424;2023-07-16T21:45:26;0.3;0.3;0
74436;PMS7003;62868;52.360;30.424;2023-07-16T21:50:10;0.3;0;0
74436;PMS7003;62868;52.360;30.424;2023-07-16T21:55:04;0;0;0
74436;PMS7003;62868;52.360;30.424;2023-07-16T22:00:06;0.3;0;0
74436;PMS7003;62868;52.360;30.424;2023-07-16T22:05:42;0;0;0
74436;PMS7003;62868;52.360;30.424;2023-07-16T22:10:24;0;0;0
74436;PMS7003;62868;52.360;30.424;2023-07-16T22:15:28;0;0;0
74436;PMS7003;62868;52.360;30.424;2023-07-16T22:20:52;0;0;0
74436;PMS7003;62868;52.360;30.424;2023-07-16T22:25:24;0.3;0;0
74436;PMS7003;62868;52.360;30.424;2023-07-16T22:30:16;0;0;0
74436;PMS7003;62868;52.360;30.424;2023-07-16T22:35:36;0;0;0
74436;PMS7003;62868;52.360;30.424;2023-07-16T22:40:38;0;0;0
74436;PMS7003;62868;52.360;30.424;2023-07-16T22:45:52;0;0;0
74436;PMS7003;62868;52.360;30.424;2023-07-16T22:50:36;0;0;0
74436;PMS7003;62868;52.360;30.424;2023-07-16T22:55:10;0;0;0
74436;PMS7003;62868;52.360;30.424;2023-07-16T23:00:38;0;0;0
74436;PMS7003;62868;52.360;30.424;2023-07-16T23:05:52;0;0;0
74436;PMS7003;62868;52.360;30.424;2023-07-16T23:10:52;0;0;0
74436;PMS7003;62868;52.360;30.424;2023-07-16T23:15:44;0;0;0
74436;PMS7003;62868;52.360;30.424;2023-07-16T23:20:52;0;0;0
74436;PMS7003;62868;52.360;30.424;2023-07-16T23:25:36;0;0;0
74436;PMS7003;62868;52.360;30.424;2023-07-16T23:30:04;0;0;0
74436;PMS7003;62868;52.360;30.424;2023-07-16T23:35:06;0;0;0
74436;PMS7003;62868;52.360;30.424;2023-07-16T23:40:52;0;0;0
74436;PMS7003;62868;52.360;30.424;2023-07-16T23:45:32;0;0;0
74436;PMS7003;62868;52.360;30.424;2023-07-16T23:50:24;0;0;0
74436;PMS7003;62868;52.360;30.424;2023-07-16T23:55:52;0;0;0
